createdAt,value
2018-12-10T00:00:30.022Z,10.51
2018-12-10T00:01:10.446Z,10.46
2018-12-10T00:01:50.871Z,10.46
2018-12-10T00:02:31.236Z,10.49
2018-12-10T00:03:11.670Z,10.47
2018-12-10T00:03:52.033Z,10.57
2018-12-10T00:04:32.479Z,10.38
2018-12-10T00:05:12.866Z,10.38
2018-12-10T00:05:53.232Z,10.29
2018-12-10T00:06:33.644Z,10.25
2018-12-10T00:07:14.055Z,10.25
2018-12-10T00:07:54.468Z,10.28
2018-12-10T00:08:34.838Z,10.26
2018-12-10T00:09:15.192Z,10.17
2018-12-10T00:09:56.295Z,10.22
2018-12-10T00:10:41.477Z,10.02
2018-12-10T00:11:17.305Z,10.09
2018-12-10T00:11:57.534Z,9.95
2018-12-10T00:12:37.996Z,9.95
2018-12-10T00:13:18.405Z,9.93
2018-12-10T00:13:58.819Z,9.95
2018-12-10T00:14:39.220Z,10.02
2018-12-10T00:15:19.654Z,9.98
2018-12-10T00:16:00.017Z,10.06
2018-12-10T00:16:40.411Z,9.89
2018-12-10T00:17:20.823Z,9.96
2018-12-10T00:18:01.209Z,9.91
2018-12-10T00:18:41.586Z,9.86
2018-12-10T00:19:22.015Z,9.92
2018-12-10T00:20:02.447Z,9.89
2018-12-10T00:20:42.853Z,9.86
2018-12-10T00:21:23.275Z,9.86
2018-12-10T00:22:03.656Z,9.88
2018-12-10T00:22:44.046Z,9.88
2018-12-10T00:23:24.445Z,9.86
2018-12-10T00:24:04.849Z,9.96
2018-12-10T00:24:45.269Z,9.98
2018-12-10T00:25:25.624Z,10.07
2018-12-10T00:26:06.042Z,10.13
2018-12-10T00:26:46.419Z,10.17
2018-12-10T00:27:26.830Z,10.14
2018-12-10T00:28:07.266Z,10.11
2018-12-10T00:28:47.619Z,10.04
2018-12-10T00:29:27.998Z,10.04
2018-12-10T00:30:08.373Z,10.13
2018-12-10T00:30:48.804Z,9.96
2018-12-10T00:31:29.208Z,10.06
2018-12-10T00:32:09.641Z,10.02
2018-12-10T00:34:07.131Z,9.85
2018-12-10T00:34:47.738Z,9.99
2018-12-10T00:35:28.151Z,9.96
2018-12-10T00:36:08.534Z,9.99
2018-12-10T00:36:48.935Z,9.99
2018-12-10T00:37:29.332Z,10.02
2018-12-10T00:38:09.740Z,10.14
2018-12-10T00:38:50.169Z,10.16
2018-12-10T00:39:30.567Z,10.14
2018-12-10T00:40:11.057Z,10.14
2018-12-10T00:40:51.432Z,10.16
2018-12-10T00:41:31.830Z,10.11
2018-12-10T00:42:12.210Z,10.14
2018-12-10T00:42:52.592Z,10.13
2018-12-10T00:43:32.970Z,10.14
2018-12-10T00:44:13.370Z,10.11
2018-12-10T00:44:53.780Z,10.16
2018-12-10T00:45:34.164Z,10.1
2018-12-10T00:46:14.576Z,10.09
2018-12-10T00:46:55.007Z,10.07
2018-12-10T00:47:35.433Z,10.22
2018-12-10T00:48:15.864Z,10.22
2018-12-10T00:48:56.281Z,10.22
2018-12-10T00:49:36.738Z,10.25
2018-12-10T00:50:17.265Z,10.16
2018-12-10T00:50:57.580Z,10.11
2018-12-10T00:51:38.010Z,10.14
2018-12-10T00:52:18.488Z,10.04
2018-12-10T00:52:58.877Z,10.04
2018-12-10T00:53:39.272Z,9.99
2018-12-10T00:54:19.709Z,10.01
2018-12-10T00:55:00.087Z,9.99
2018-12-10T00:55:40.464Z,9.96
2018-12-10T00:56:20.867Z,9.93
2018-12-10T00:57:01.277Z,9.83
2018-12-10T00:57:41.677Z,9.68
2018-12-10T00:58:22.115Z,9.86
2018-12-10T00:59:02.561Z,9.85
2018-12-10T00:59:42.916Z,9.8
2018-12-10T01:00:23.305Z,9.85
2018-12-10T01:01:03.703Z,9.88
2018-12-10T01:01:44.172Z,9.96
2018-12-10T01:02:24.614Z,9.98
2018-12-10T01:03:04.965Z,9.93
2018-12-10T01:03:45.374Z,10.02
2018-12-10T01:04:25.826Z,9.98
2018-12-10T01:05:06.194Z,9.99
2018-12-10T01:05:46.617Z,9.96
2018-12-10T01:06:27.035Z,10.04
2018-12-10T01:07:07.441Z,10.07
2018-12-10T01:07:47.884Z,9.96
2018-12-10T01:08:28.240Z,10.01
2018-12-10T01:09:08.650Z,10.09
2018-12-10T01:09:49.031Z,10.07
2018-12-10T01:10:29.432Z,10.13
2018-12-10T01:11:09.835Z,10.14
2018-12-10T01:13:02.257Z,10.13
2018-12-10T01:13:42.648Z,10.16
2018-12-10T01:14:23.010Z,10.25
2018-12-10T01:15:03.435Z,10.29
2018-12-10T01:15:43.876Z,10.24
2018-12-10T01:17:41.341Z,10.22
2018-12-10T01:18:40.528Z,10.17
2018-12-10T01:19:36.300Z,10.2
2018-12-10T01:23:10.789Z,10.16
2018-12-10T01:24:06.243Z,10.14
2018-12-10T01:26:05.307Z,10.04
2018-12-10T01:27:41.326Z,9.92
2018-12-10T01:28:22.383Z,10.02
2018-12-10T01:29:02.965Z,10.01
2018-12-10T01:29:43.168Z,9.99
2018-12-10T01:30:23.544Z,9.92
2018-12-10T01:31:03.960Z,9.8
2018-12-10T01:31:44.337Z,9.77
2018-12-10T01:32:24.723Z,9.74
2018-12-10T01:33:05.127Z,9.67
2018-12-10T01:33:45.525Z,9.7
2018-12-10T01:35:59.319Z,9.8
2018-12-10T01:36:39.609Z,9.77
2018-12-10T01:37:20.033Z,9.86
2018-12-10T01:38:00.440Z,9.8
2018-12-10T01:38:40.860Z,9.77
2018-12-10T01:39:21.248Z,9.77
2018-12-10T01:40:01.753Z,9.7
2018-12-10T01:40:42.072Z,9.59
2018-12-10T01:41:22.477Z,9.7
2018-12-10T01:42:02.876Z,9.62
2018-12-10T01:42:43.298Z,9.65
2018-12-10T01:43:23.695Z,9.68
2018-12-10T01:44:04.092Z,9.7
2018-12-10T01:44:44.535Z,9.78
2018-12-10T01:45:24.940Z,9.77
2018-12-10T01:46:05.430Z,9.86
2018-12-10T01:46:45.675Z,9.92
2018-12-10T01:47:26.077Z,9.93
2018-12-10T01:49:14.488Z,9.78
2018-12-10T01:49:54.922Z,9.83
2018-12-10T01:50:35.407Z,9.88
2018-12-10T01:51:15.786Z,9.77
2018-12-10T01:51:56.220Z,9.78
2018-12-10T01:53:53.608Z,9.89
2018-12-10T01:54:34.167Z,9.99
2018-12-10T01:55:14.564Z,10.07
2018-12-10T01:55:54.974Z,10.06
2018-12-10T01:58:07.452Z,9.95
2018-12-10T01:58:47.837Z,10.02
2018-12-10T01:59:28.440Z,10.02
2018-12-10T02:00:08.859Z,9.99
2018-12-10T02:00:49.287Z,9.93
2018-12-10T02:01:29.677Z,9.99
2018-12-10T02:02:10.075Z,10.1
2018-12-10T02:02:50.483Z,10.04
2018-12-10T02:03:30.881Z,9.96
2018-12-10T02:04:11.262Z,10.01
2018-12-10T02:04:51.796Z,10.1
2018-12-10T02:05:32.231Z,10.1
2018-12-10T02:06:12.646Z,10.14
2018-12-10T02:06:53.074Z,10.13
2018-12-10T02:07:33.449Z,10.17
2018-12-10T02:08:13.834Z,10.11
2018-12-10T02:08:54.263Z,10.16
2018-12-10T02:09:34.666Z,10.24
2018-12-10T02:10:15.044Z,10.07
2018-12-10T02:10:55.431Z,10.06
2018-12-10T02:11:35.824Z,9.98
2018-12-10T02:12:16.216Z,10.06
2018-12-10T02:12:56.587Z,10.06
2018-12-10T02:13:37.045Z,10.02
2018-12-10T02:14:17.414Z,9.95
2018-12-10T02:14:57.890Z,10.02
2018-12-10T02:15:38.245Z,9.98
2018-12-10T02:16:18.661Z,10.06
2018-12-10T02:16:59.040Z,10.11
2018-12-10T02:17:39.431Z,10.2
2018-12-10T02:18:19.833Z,10.18
2018-12-10T02:19:00.212Z,10.22
2018-12-10T02:21:13.138Z,10.13
2018-12-10T02:21:53.440Z,10.1
2018-12-10T02:22:33.854Z,9.99
2018-12-10T02:23:14.259Z,9.95
2018-12-10T02:23:54.627Z,10.01
2018-12-10T02:24:35.037Z,10.02
2018-12-10T02:25:15.439Z,9.98
2018-12-10T02:25:55.864Z,10.06
2018-12-10T02:26:36.286Z,10.07
2018-12-10T02:27:16.655Z,10.11
2018-12-10T02:27:57.131Z,10.1
2018-12-10T02:28:37.484Z,10.13
2018-12-10T02:29:17.873Z,10.18
2018-12-10T02:29:58.324Z,10.07
2018-12-10T02:30:38.755Z,10.11
2018-12-10T02:31:19.151Z,10.07
2018-12-10T02:31:59.523Z,10.13
2018-12-10T02:32:39.947Z,10.2
2018-12-10T02:33:20.338Z,10.24
2018-12-10T02:34:00.730Z,10.24
2018-12-10T02:34:41.123Z,10.26
2018-12-10T02:35:21.506Z,10.26
2018-12-10T02:37:03.684Z,10.25
2018-12-10T02:37:58.032Z,10.29
2018-12-10T02:38:54.925Z,10.28
2018-12-10T02:39:54.451Z,10.36
2018-12-10T02:40:47.706Z,10.42
2018-12-10T02:41:41.995Z,10.36
2018-12-10T02:42:35.225Z,10.42
2018-12-10T02:44:46.471Z,10.54
2018-12-10T02:45:26.783Z,10.43
2018-12-10T02:46:07.145Z,10.42
2018-12-10T02:46:47.566Z,10.52
2018-12-10T02:47:27.966Z,10.55
2018-12-10T02:48:08.422Z,10.44
2018-12-10T02:48:48.745Z,10.35
2018-12-10T02:49:29.368Z,10.39
2018-12-10T02:50:09.750Z,10.28
2018-12-10T02:50:50.184Z,10.26
2018-12-10T02:53:04.724Z,10.22
2018-12-10T02:53:45.232Z,10.24
2018-12-10T02:54:25.675Z,10.18
2018-12-10T02:55:06.052Z,10.17
2018-12-10T02:55:46.466Z,10.13
2018-12-10T02:56:26.830Z,10.1
2018-12-10T02:57:07.254Z,10.13
2018-12-10T02:57:47.669Z,10.13
2018-12-10T02:58:28.097Z,10.09
2018-12-10T02:59:08.488Z,10.17
2018-12-10T02:59:48.900Z,10.25
2018-12-10T03:00:29.348Z,10.24
2018-12-10T03:01:09.736Z,10.22
2018-12-10T03:01:50.149Z,10.25
2018-12-10T03:02:30.529Z,10.25
2018-12-10T03:03:10.982Z,10.18
2018-12-10T03:03:51.341Z,10.26
2018-12-10T03:04:31.738Z,10.24
2018-12-10T03:05:12.137Z,10.26
2018-12-10T03:05:52.536Z,10.1
2018-12-10T03:06:32.940Z,9.98
2018-12-10T03:07:13.401Z,9.92
2018-12-10T03:07:53.801Z,9.95
2018-12-10T03:08:34.207Z,9.98
2018-12-10T03:09:14.587Z,10.02
2018-12-10T03:09:55.241Z,10.06
2018-12-10T03:10:35.640Z,10.01
2018-12-10T03:11:16.061Z,10.01
2018-12-10T03:11:56.470Z,10.06
2018-12-10T03:12:36.944Z,10.07
2018-12-10T03:13:17.347Z,10.02
2018-12-10T03:15:34.067Z,10.02
2018-12-10T03:17:23.032Z,9.98
2018-12-10T03:18:04.029Z,9.93
2018-12-10T03:18:44.445Z,9.96
2018-12-10T03:19:24.862Z,9.96
2018-12-10T03:20:05.249Z,9.98
2018-12-10T03:20:45.793Z,10.06
2018-12-10T03:21:26.196Z,9.93
2018-12-10T03:22:06.644Z,9.92
2018-12-10T03:24:24.435Z,9.78
2018-12-10T03:25:22.072Z,9.58
2018-12-10T03:27:19.928Z,9.58
2018-12-10T03:28:00.245Z,9.45
2018-12-10T03:28:40.663Z,9.45
2018-12-10T03:29:21.072Z,9.42
2018-12-10T03:30:01.634Z,9.42
2018-12-10T03:30:41.910Z,9.49
2018-12-10T03:31:22.292Z,9.4
2018-12-10T03:33:09.976Z,9.31
2018-12-10T03:33:50.272Z,9.27
2018-12-10T03:34:30.711Z,9.4
2018-12-10T03:35:11.095Z,9.37
2018-12-10T03:35:51.557Z,9.41
2018-12-10T03:36:31.920Z,9.48
2018-12-10T03:37:12.315Z,9.52
2018-12-10T03:37:52.708Z,9.55
2018-12-10T03:38:33.089Z,9.6
2018-12-10T03:39:13.481Z,9.7
2018-12-10T03:39:54.036Z,9.67
2018-12-10T03:40:34.519Z,9.58
2018-12-10T03:41:14.915Z,9.6
2018-12-10T03:41:55.319Z,9.58
2018-12-10T03:42:35.686Z,9.67
2018-12-10T03:43:16.091Z,9.6
2018-12-10T03:45:08.795Z,9.68
2018-12-10T03:46:02.897Z,9.65
2018-12-10T03:46:58.616Z,9.62
2018-12-10T03:47:58.963Z,9.77
2018-12-10T03:48:52.600Z,9.65
2018-12-10T03:49:47.639Z,9.71
2018-12-10T03:50:46.207Z,9.59
2018-12-10T03:51:38.526Z,9.65
2018-12-10T03:52:30.829Z,9.6
2018-12-10T03:54:22.195Z,9.65
2018-12-10T03:55:02.451Z,9.56
2018-12-10T03:55:42.876Z,9.6
2018-12-10T03:56:23.267Z,9.63
2018-12-10T03:58:17.583Z,9.6
2018-12-10T03:58:58.726Z,9.71
2018-12-10T03:59:38.913Z,9.67
2018-12-10T04:00:19.342Z,9.55
2018-12-10T04:00:59.713Z,9.62
2018-12-10T04:03:03.116Z,9.56
2018-12-10T04:03:55.164Z,9.34
2018-12-10T04:04:47.607Z,9.34
2018-12-10T04:06:52.466Z,9.32
2018-12-10T04:07:33.026Z,9.31
2018-12-10T04:08:13.567Z,9.26
2018-12-10T04:08:53.943Z,9.27
2018-12-10T04:11:54.266Z,9.42
2018-12-10T04:12:34.557Z,9.49
2018-12-10T04:13:14.937Z,9.55
2018-12-10T04:13:55.375Z,9.53
2018-12-10T04:14:35.761Z,9.56
2018-12-10T04:15:16.196Z,9.59
2018-12-10T04:15:56.529Z,9.52
2018-12-10T04:16:36.908Z,9.56
2018-12-10T04:17:17.345Z,9.56
2018-12-10T04:17:57.739Z,9.56
2018-12-10T04:18:38.133Z,9.52
2018-12-10T04:19:18.579Z,9.6
2018-12-10T04:19:58.926Z,9.58
2018-12-10T04:21:36.137Z,9.5
2018-12-10T04:22:16.492Z,9.52
2018-12-10T04:22:56.934Z,9.55
2018-12-10T04:23:37.299Z,9.56
2018-12-10T04:24:17.699Z,9.63
2018-12-10T04:24:58.070Z,9.65
2018-12-10T04:27:10.941Z,9.62
2018-12-10T05:06:05.290Z,9.15
2018-12-10T05:06:45.526Z,9.12
2018-12-10T05:07:25.907Z,9.1
2018-12-10T05:08:06.351Z,9.12
2018-12-10T05:08:46.732Z,9.15
2018-12-10T05:09:27.118Z,9.08
2018-12-10T05:10:07.522Z,9.08
2018-12-10T05:10:47.956Z,9.13
2018-12-10T05:11:28.385Z,9.15
2018-12-10T05:12:08.937Z,9.2
2018-12-10T05:12:49.301Z,9.17
2018-12-10T05:13:29.721Z,9.16
2018-12-10T05:14:10.404Z,9.06
2018-12-10T05:14:50.785Z,9.08
2018-12-10T05:15:31.195Z,9.17
2018-12-10T05:16:11.579Z,9.16
2018-12-10T05:16:52.009Z,9.23
2018-12-10T05:17:32.436Z,9.3
2018-12-10T05:18:12.853Z,9.31
2018-12-10T05:18:53.243Z,9.34
2018-12-10T05:19:33.596Z,9.22
2018-12-10T05:21:36.157Z,9.34
2018-12-10T05:22:31.531Z,9.31
2018-12-10T05:24:36.905Z,9.3
2018-12-10T05:25:17.232Z,9.17
2018-12-10T05:27:05.551Z,8.94
2018-12-10T05:27:46.742Z,8.98
2018-12-10T05:28:27.153Z,8.91
2018-12-10T05:30:24.722Z,8.91
2018-12-10T05:31:05.133Z,8.94
2018-12-10T05:31:45.519Z,8.91
2018-12-10T05:32:25.905Z,8.94
2018-12-10T05:33:06.315Z,8.96
2018-12-10T05:33:46.682Z,9.01
2018-12-10T05:34:27.092Z,8.93
2018-12-10T05:35:07.484Z,8.85
2018-12-10T05:35:47.927Z,8.73
2018-12-10T05:39:35.710Z,8.71
2018-12-10T05:40:30.284Z,8.88
2018-12-10T05:41:38.529Z,9.03
2018-12-10T05:42:36.320Z,9.08
2018-12-10T05:43:32.348Z,9.08
2018-12-10T05:44:28.863Z,9.13
2018-12-10T05:45:24.503Z,9.1
2018-12-10T05:46:20.299Z,9.1
2018-12-10T05:47:18.197Z,9.08
2018-12-10T05:48:11.615Z,8.98
2018-12-10T05:49:12.721Z,8.94
2018-12-10T05:50:10.540Z,9.03
2018-12-10T05:52:01.824Z,9.2
2018-12-10T05:52:42.174Z,9.23
2018-12-10T05:53:22.614Z,9.3
2018-12-10T05:54:03.107Z,9.37
2018-12-10T05:54:43.470Z,9.38
2018-12-10T05:55:23.875Z,9.3
2018-12-10T05:56:04.319Z,9.27
2018-12-10T05:56:44.781Z,9.32
2018-12-10T05:57:25.173Z,9.32
2018-12-10T05:58:05.644Z,9.3
2018-12-10T05:58:46.067Z,9.26
2018-12-10T05:59:26.497Z,9.32
2018-12-10T06:00:06.899Z,9.34
2018-12-10T06:00:47.268Z,9.34
2018-12-10T06:01:27.684Z,9.44
2018-12-10T06:02:08.091Z,9.5
2018-12-10T06:02:48.504Z,9.53
2018-12-10T06:03:28.894Z,9.62
2018-12-10T06:04:09.479Z,9.63
2018-12-10T06:04:49.930Z,9.7
2018-12-10T06:05:30.423Z,9.63
2018-12-10T06:06:10.789Z,9.67
2018-12-10T06:07:49.946Z,9.65
2018-12-10T06:08:30.462Z,9.7
2018-12-10T06:09:10.873Z,9.7
2018-12-10T06:09:51.340Z,9.67
2018-12-10T06:10:31.716Z,9.67
2018-12-10T06:11:12.155Z,9.7
2018-12-10T06:11:52.521Z,9.71
2018-12-10T06:12:32.983Z,9.68
2018-12-10T06:13:13.407Z,9.73
2018-12-10T06:13:53.831Z,9.6
2018-12-10T06:14:34.253Z,9.63
2018-12-10T06:15:14.659Z,9.56
2018-12-10T06:15:55.061Z,9.49
2018-12-10T06:17:32.489Z,9.55
2018-12-10T06:18:12.984Z,9.45
2018-12-10T06:18:53.418Z,9.5
2018-12-10T06:19:33.766Z,9.5
2018-12-10T06:20:14.171Z,9.5
2018-12-10T06:20:54.597Z,9.45
2018-12-10T06:21:35.001Z,9.41
2018-12-10T06:22:15.494Z,9.4
2018-12-10T06:22:56.075Z,9.52
2018-12-10T06:23:37.725Z,9.4
2018-12-10T06:24:16.870Z,9.42
2018-12-10T06:24:57.636Z,9.42
2018-12-10T06:25:37.747Z,9.49
2018-12-10T06:26:18.128Z,9.48
2018-12-10T06:26:58.546Z,9.38
2018-12-10T06:27:39.010Z,9.32
2018-12-10T06:28:19.405Z,9.41
2018-12-10T06:28:59.779Z,9.37
2018-12-10T06:29:40.199Z,9.5
2018-12-10T06:30:20.622Z,9.44
2018-12-10T06:31:00.977Z,9.53
2018-12-10T06:31:41.438Z,9.42
2018-12-10T06:32:21.827Z,9.35
2018-12-10T06:34:17.912Z,9.49
2018-12-10T06:36:31.154Z,9.42
2018-12-10T06:37:11.228Z,9.35
2018-12-10T06:37:51.601Z,9.37
2018-12-10T06:38:32.014Z,9.32
2018-12-10T06:39:12.433Z,9.3
2018-12-10T06:39:53.293Z,9.32
2018-12-10T06:40:35.873Z,9.31
2018-12-10T06:41:16.768Z,9.3
2018-12-10T06:41:57.155Z,9.34
2018-12-10T06:42:37.704Z,9.31
2018-12-10T06:43:18.057Z,9.31
2018-12-10T06:43:58.513Z,9.34
2018-12-10T06:44:38.991Z,9.41
2018-12-10T06:45:19.382Z,9.55
2018-12-10T06:45:59.738Z,9.58
2018-12-10T06:46:40.226Z,9.55
2018-12-10T06:47:20.655Z,9.5
2018-12-10T06:48:01.135Z,9.52
2018-12-10T06:48:41.880Z,9.6
2018-12-10T06:49:22.159Z,9.62
2018-12-10T06:50:02.700Z,9.65
2018-12-10T06:50:43.525Z,9.65
2018-12-10T06:51:24.695Z,9.7
2018-12-10T06:52:06.063Z,9.62
2018-12-10T06:52:46.746Z,9.65
2018-12-10T06:53:27.393Z,9.63
2018-12-10T06:54:07.873Z,9.5
2018-12-10T06:54:48.579Z,9.65
2018-12-10T06:55:29.021Z,9.68
2018-12-10T06:57:28.227Z,9.62
2018-12-10T06:58:08.750Z,9.52
2018-12-10T06:58:49.284Z,9.5
2018-12-10T06:59:29.831Z,9.44
2018-12-10T07:00:10.388Z,9.59
2018-12-10T07:00:50.883Z,9.56
2018-12-10T07:01:32.488Z,9.6
2018-12-10T07:02:12.327Z,9.62
2018-12-10T07:02:54.161Z,9.65
2018-12-10T07:03:34.679Z,9.68
2018-12-10T07:04:15.549Z,9.68
2018-12-10T07:04:56.482Z,9.71
2018-12-10T07:05:38.422Z,9.67
2018-12-10T07:06:19.057Z,9.6
2018-12-10T07:07:00.239Z,9.62
2018-12-10T07:07:41.484Z,9.63
2018-12-10T07:08:21.849Z,9.7
2018-12-10T07:09:03.494Z,9.6
2018-12-10T07:09:43.458Z,9.62
2018-12-10T07:10:24.193Z,9.6
2018-12-10T07:11:04.702Z,9.59
2018-12-10T07:11:45.371Z,9.53
2018-12-10T07:12:25.841Z,9.55
2018-12-10T07:13:07.542Z,9.56
2018-12-10T07:13:47.990Z,9.65
2018-12-10T07:14:28.905Z,9.62
2018-12-10T07:15:10.489Z,9.52
2018-12-10T07:15:51.013Z,9.52
2018-12-10T07:16:32.480Z,9.63
2018-12-10T07:17:12.946Z,9.55
2018-12-10T07:17:53.535Z,9.5
2018-12-10T07:18:34.178Z,9.53
2018-12-10T07:19:15.322Z,9.53
2018-12-10T07:19:55.709Z,9.65
2018-12-10T07:20:36.392Z,9.65
2018-12-10T07:21:17.297Z,9.56
2018-12-10T07:21:57.969Z,9.58
2018-12-10T07:22:38.716Z,9.52
2018-12-10T07:23:19.336Z,9.55
2018-12-10T07:23:59.960Z,9.58
2018-12-10T07:24:40.456Z,9.5
2018-12-10T07:25:21.051Z,9.5
2018-12-10T07:26:01.670Z,9.48
2018-12-10T07:28:00.155Z,9.58
2018-12-10T07:28:40.345Z,9.62
2018-12-10T07:29:21.475Z,9.71
2018-12-10T07:30:02.281Z,9.63
2018-12-10T07:30:43.569Z,9.65
2018-12-10T07:31:23.836Z,9.68
2018-12-10T07:32:04.960Z,9.55
2018-12-10T07:32:45.328Z,9.56
2018-12-10T07:33:25.790Z,9.5
2018-12-10T07:34:06.272Z,9.49
2018-12-10T07:34:47.915Z,9.53
2018-12-10T07:35:28.511Z,9.5
2018-12-10T07:36:08.838Z,9.53
2018-12-10T07:36:49.329Z,9.45
2018-12-10T07:37:29.742Z,9.38
2018-12-10T07:38:10.514Z,9.31
2018-12-10T07:38:51.396Z,9.31
2018-12-10T07:39:32.213Z,9.27
2018-12-10T07:40:12.644Z,9.32
2018-12-10T07:40:53.236Z,9.23
2018-12-10T07:41:33.888Z,9.3
2018-12-10T07:42:15.005Z,9.26
2018-12-10T07:42:55.217Z,9.34
2018-12-10T07:43:36.455Z,9.32
2018-12-10T07:44:16.503Z,9.42
2018-12-10T07:44:57.211Z,9.41
2018-12-10T07:45:37.721Z,9.49
2018-12-10T07:46:18.388Z,9.37
2018-12-10T07:46:59.173Z,9.42
2018-12-10T07:47:41.101Z,9.58
2018-12-10T07:49:53.677Z,9.52
2018-12-10T07:50:34.139Z,9.59
2018-12-10T07:51:14.832Z,9.58
2018-12-10T07:51:55.247Z,9.58
2018-12-10T07:52:35.722Z,9.6
2018-12-10T07:53:17.207Z,9.58
2018-12-10T07:53:57.342Z,9.73
2018-12-10T07:54:38.372Z,9.71
2018-12-10T07:55:19.516Z,9.71
2018-12-10T07:56:00.510Z,9.74
2018-12-10T07:56:42.452Z,9.68
2018-12-10T07:57:24.184Z,9.8
2018-12-10T07:58:03.925Z,9.74
2018-12-10T07:58:44.848Z,9.77
2018-12-10T07:59:26.478Z,9.8
2018-12-10T08:00:07.114Z,9.77
2018-12-10T08:00:47.347Z,9.71
2018-12-10T08:02:35.917Z,9.74
2018-12-10T08:03:16.160Z,9.77
2018-12-10T08:03:56.609Z,9.73
2018-12-10T08:04:38.454Z,9.83
2018-12-10T08:05:18.586Z,9.77
2018-12-10T08:06:00.282Z,9.83
2018-12-10T08:06:42.132Z,9.77
2018-12-10T08:07:24.806Z,9.78
2018-12-10T08:08:05.791Z,9.86
2018-12-10T08:08:47.494Z,9.77
2018-12-10T08:09:27.791Z,9.68
2018-12-10T08:10:15.356Z,9.67
2018-12-10T08:10:58.532Z,9.63
2018-12-10T08:11:39.704Z,9.48
2018-12-10T08:12:19.443Z,9.44
2018-12-10T08:13:00.834Z,9.5
2018-12-10T08:13:42.194Z,9.5
2018-12-10T08:14:22.286Z,9.44
2018-12-10T08:15:02.817Z,9.48
2018-12-10T08:15:43.562Z,9.53
2018-12-10T08:16:24.827Z,9.56
2018-12-10T08:17:05.042Z,9.6
2018-12-10T08:17:45.528Z,9.52
2018-12-10T08:18:25.850Z,9.52
2018-12-10T08:19:06.453Z,9.48
2018-12-10T08:19:47.774Z,9.58
2018-12-10T08:20:28.716Z,9.49
2018-12-10T08:21:09.030Z,9.58
2018-12-10T08:21:50.237Z,9.53
2018-12-10T08:22:30.767Z,9.59
2018-12-10T08:23:12.217Z,9.65
2018-12-10T08:23:52.601Z,9.68
2018-12-10T08:24:33.701Z,9.78
2018-12-10T08:25:14.529Z,9.75
2018-12-10T08:25:55.850Z,9.74
2018-12-10T08:26:36.392Z,9.77
2018-12-10T08:27:17.083Z,9.83
2018-12-10T08:27:57.835Z,9.7
2018-12-10T08:28:39.202Z,9.68
2018-12-10T08:29:20.302Z,9.71
2018-12-10T08:30:00.577Z,9.62
2018-12-10T08:30:41.267Z,9.71
2018-12-10T08:31:21.866Z,9.68
2018-12-10T08:32:02.726Z,9.62
2018-12-10T08:32:43.454Z,9.8
2018-12-10T08:33:24.212Z,9.75
2018-12-10T08:34:05.924Z,9.85
2018-12-10T08:34:46.289Z,9.96
2018-12-10T08:35:26.971Z,9.92
2018-12-10T08:36:07.688Z,9.98
2018-12-10T08:36:48.540Z,9.88
2018-12-10T08:37:29.599Z,9.93
2018-12-10T08:38:10.316Z,9.99
2018-12-10T08:38:51.696Z,9.89
2018-12-10T08:39:32.169Z,9.99
2018-12-10T08:40:12.689Z,9.96
2018-12-10T08:40:53.563Z,9.71
2018-12-10T08:41:33.750Z,9.68
2018-12-10T08:42:16.127Z,9.8
2018-12-10T08:42:57.868Z,9.77
2018-12-10T08:43:37.906Z,9.73
2018-12-10T08:44:20.209Z,9.78
2018-12-10T08:45:00.294Z,9.83
2018-12-10T08:45:41.215Z,9.89
2018-12-10T08:46:24.019Z,10.04
2018-12-10T08:47:03.314Z,10.01
2018-12-10T08:47:44.694Z,10.1
2018-12-10T08:48:24.657Z,10.17
2018-12-10T08:49:06.505Z,10.28
2018-12-10T08:49:46.705Z,10.14
2018-12-10T08:50:27.703Z,10.09
2018-12-10T08:51:07.386Z,10.07
2018-12-10T08:51:48.489Z,10.09
2018-12-10T08:52:29.337Z,10.01
2018-12-10T08:53:10.047Z,9.96
2018-12-10T08:53:51.006Z,9.99
2018-12-10T08:54:31.546Z,10.11
2018-12-10T08:55:12.333Z,10.13
2018-12-10T08:55:54.197Z,10.11
2018-12-10T08:56:34.423Z,10.09
2018-12-10T08:57:15.551Z,10.11
2018-12-10T08:57:55.515Z,10.04
2018-12-10T08:58:39.231Z,10.04
2018-12-10T08:59:19.840Z,10.09
2018-12-10T09:00:00.699Z,10.02
2018-12-10T09:00:42.213Z,10.11
2018-12-10T09:01:22.666Z,10.13
2018-12-10T09:02:03.194Z,10.09
2018-12-10T09:02:44.799Z,10.22
2018-12-10T09:03:25.224Z,10.22
2018-12-10T09:04:05.863Z,10.22
2018-12-10T09:04:46.411Z,10.14
2018-12-10T09:05:27.084Z,10.1
2018-12-10T09:06:07.573Z,10.2
2018-12-10T09:06:49.480Z,10.26
2018-12-10T09:07:30.726Z,10.25
2018-12-10T09:08:10.594Z,10.17
2018-12-10T09:08:52.208Z,10.18
2018-12-10T09:09:32.498Z,10.22
2018-12-10T09:10:13.859Z,10.39
2018-12-10T09:10:54.225Z,10.26
2018-12-10T09:13:12.941Z,10.35
2018-12-10T09:15:36.022Z,10.26
2018-12-10T09:16:16.853Z,10.26
2018-12-10T09:16:57.619Z,10.35
2018-12-10T09:17:39.285Z,10.35
2018-12-10T09:18:19.628Z,10.35
2018-12-10T09:19:01.614Z,10.36
2018-12-10T09:19:40.978Z,10.36
2018-12-10T09:20:22.068Z,10.32
2018-12-10T09:21:02.724Z,10.44
2018-12-10T09:21:43.904Z,10.47
2018-12-10T09:22:24.985Z,10.55
2018-12-10T09:23:06.266Z,10.66
2018-12-10T09:23:46.299Z,10.66
2018-12-10T09:24:27.198Z,10.68
2018-12-10T09:25:07.787Z,10.69
2018-12-10T09:25:48.975Z,10.51
2018-12-10T09:26:29.813Z,10.55
2018-12-10T09:27:10.504Z,10.47
2018-12-10T09:27:51.503Z,10.38
2018-12-10T09:28:31.395Z,10.46
2018-12-10T09:29:11.836Z,10.44
2018-12-10T09:29:52.564Z,10.47
2018-12-10T09:30:33.168Z,10.36
2018-12-10T09:31:14.039Z,10.44
2018-12-10T09:31:54.303Z,10.46
2018-12-10T09:32:35.452Z,10.46
2018-12-10T09:36:04.681Z,10.58
2018-12-10T09:38:13.063Z,10.68
2018-12-10T09:38:53.679Z,10.69
2018-12-10T09:39:35.381Z,10.7
2018-12-10T09:40:15.173Z,10.68
2018-12-10T09:40:55.694Z,10.58
2018-12-10T09:41:37.056Z,10.49
2018-12-10T09:42:17.951Z,10.44
2018-12-10T09:42:58.886Z,10.43
2018-12-10T09:43:38.999Z,10.49
2018-12-10T09:44:19.716Z,10.46
2018-12-10T09:45:00.175Z,10.51
2018-12-10T09:45:40.937Z,10.47
2018-12-10T09:46:27.419Z,10.42
2018-12-10T09:47:03.216Z,10.39
2018-12-10T09:47:44.063Z,10.42
2018-12-10T09:48:24.743Z,10.44
2018-12-10T09:49:05.935Z,10.49
2018-12-10T09:49:46.203Z,10.51
2018-12-10T09:50:27.356Z,10.7
2018-12-10T09:51:08.146Z,10.69
2018-12-10T09:51:48.758Z,10.69
2018-12-10T09:52:29.573Z,10.72
2018-12-10T09:53:10.877Z,10.72
2018-12-10T09:53:51.037Z,10.66
2018-12-10T09:54:32.312Z,10.69
2018-12-10T09:55:13.224Z,10.7
2018-12-10T09:55:53.731Z,10.75
2018-12-10T09:56:34.333Z,10.7
2018-12-10T09:57:15.123Z,10.73
2018-12-10T09:57:56.509Z,10.65
2018-12-10T09:58:37.006Z,10.66
2018-12-10T09:59:17.507Z,10.55
2018-12-10T09:59:58.639Z,10.52
2018-12-10T10:00:39.910Z,10.52
2018-12-10T10:01:20.049Z,10.44
2018-12-10T10:02:01.100Z,10.49
2018-12-10T10:02:41.858Z,10.47
2018-12-10T10:03:22.326Z,10.42
2018-12-10T10:04:03.527Z,10.46
2018-12-10T10:04:44.948Z,10.43
2018-12-10T10:05:25.316Z,10.38
2018-12-10T10:06:05.812Z,10.46
2018-12-10T10:06:47.390Z,10.49
2018-12-10T10:07:28.474Z,10.49
2018-12-10T10:08:08.895Z,10.52
2018-12-10T10:08:49.667Z,10.46
2018-12-10T10:09:29.751Z,10.49
2018-12-10T10:10:10.594Z,10.43
2018-12-10T10:10:51.914Z,10.47
2018-12-10T10:11:31.799Z,10.47
2018-12-10T10:12:12.254Z,10.52
2018-12-10T10:12:53.079Z,10.49
2018-12-10T10:13:33.762Z,10.51
2018-12-10T10:14:15.395Z,10.58
2018-12-10T10:14:55.649Z,10.55
2018-12-10T10:15:37.593Z,10.57
2018-12-10T10:16:17.324Z,10.51
2018-12-10T10:16:58.907Z,10.54
2018-12-10T10:17:38.958Z,10.6
2018-12-10T10:18:19.695Z,10.66
2018-12-10T10:19:00.353Z,10.65
2018-12-10T10:19:41.195Z,10.78
2018-12-10T10:20:23.540Z,10.73
2018-12-10T10:21:02.720Z,10.86
2018-12-10T10:21:43.257Z,10.88
2018-12-10T10:22:23.867Z,10.86
2018-12-10T10:23:05.043Z,10.73
2018-12-10T10:23:45.066Z,10.72
2018-12-10T10:24:26.497Z,10.55
2018-12-10T10:25:07.383Z,10.36
2018-12-10T10:25:47.894Z,10.35
2018-12-10T10:26:28.233Z,10.32
2018-12-10T10:27:08.940Z,10.47
2018-12-10T10:27:49.807Z,10.46
2018-12-10T10:28:30.359Z,10.57
2018-12-10T11:09:18.260Z,10.13
2018-12-10T11:09:59.753Z,10.11
2018-12-10T11:10:41.041Z,10.11
2018-12-10T11:11:22.290Z,10.14
2018-12-10T11:12:02.817Z,10.16
2018-12-10T11:12:43.422Z,10.11
2018-12-10T11:13:24.041Z,10.13
2018-12-10T11:14:04.370Z,10.16
2018-12-10T11:14:44.894Z,10.17
2018-12-10T11:15:25.288Z,10.16
2018-12-10T11:16:05.873Z,10.09
2018-12-10T11:16:46.188Z,10.14
2018-12-10T11:17:26.671Z,10.18
2018-12-10T11:18:07.046Z,10.28
2018-12-10T11:18:47.589Z,10.34
2018-12-10T11:19:28.262Z,10.38
2018-12-10T11:20:13.254Z,10.35
2018-12-10T11:21:01.954Z,10.44
2018-12-10T11:21:43.835Z,10.43
2018-12-10T11:22:26.106Z,10.58
2018-12-10T11:23:06.200Z,10.6
2018-12-10T11:23:47.072Z,10.55
2018-12-10T11:24:29.126Z,10.66
2018-12-10T11:25:10.088Z,10.69
2018-12-10T11:25:50.557Z,10.72
2018-12-10T11:26:30.963Z,10.52
2018-12-10T11:27:11.825Z,10.62